sensor_id;sensor_type;location;lat;lon;timestamp;P1;durP1;ratioP1;P2;durP2;ratioP2
78143;SDS011;67394;52.522;13.622;2023-04-24T00:00:57;9.77;;;5.90;;
78143;SDS011;67394;52.522;13.622;2023-04-24T00:03:23;7.63;;;5.00;;
78143;SDS011;67394;52.522;13.622;2023-04-24T00:05:50;7.70;;;5.13;;
78143;SDS011;67394;52.522;13.622;2023-04-24T00:08:16;8.07;;;4.97;;
78143;SDS011;67394;52.522;13.622;2023-04-24T00:10:43;9.02;;;5.22;;
78143;SDS011;67394;52.522;13.622;2023-04-24T00:13:09;7.00;;;4.65;;
78143;SDS011;67394;52.522;13.622;2023-04-24T00:15:36;6.80;;;4.57;;
78143;SDS011;67394;52.522;13.622;2023-04-24T00:18:02;7.50;;;5.07;;
78143;SDS011;67394;52.522;13.622;2023-04-24T00:20:29;8.95;;;5.30;;
78143;SDS011;67394;52.522;13.622;2023-04-24T00:22:55;9.55;;;5.55;;
78143;SDS011;67394;52.522;13.622;2023-04-24T00:25:22;7.85;;;5.22;;
78143;SDS011;67394;52.522;13.622;2023-04-24T00:27:48;9.35;;;6.00;;
78143;SDS011;67394;52.522;13.622;2023-04-24T00:30:14;7.47;;;5.47;;
78143;SDS011;67394;52.522;13.622;2023-04-24T00:32:41;7.95;;;5.28;;
78143;SDS011;67394;52.522;13.622;2023-04-24T00:35:07;6.80;;;4.90;;
78143;SDS011;67394;52.522;13.622;2023-04-24T00:37:33;8.25;;;5.38;;
78143;SDS011;67394;52.522;13.622;2023-04-24T00:40:00;8.18;;;5.47;;
78143;SDS011;67394;52.522;13.622;2023-04-24T00:42:26;8.05;;;5.38;;
78143;SDS011;67394;52.522;13.622;2023-04-24T00:44:53;7.57;;;5.72;;
78143;SDS011;67394;52.522;13.622;2023-04-24T00:47:19;7.00;;;4.93;;
78143;SDS011;67394;52.522;13.622;2023-04-24T00:49:46;8.70;;;6.03;;
78143;SDS011;67394;52.522;13.622;2023-04-24T00:52:12;8.63;;;6.00;;
78143;SDS011;67394;52.522;13.622;2023-04-24T00:54:39;7.80;;;5.88;;
78143;SDS011;67394;52.522;13.622;2023-04-24T00:57:05;8.88;;;6.10;;
78143;SDS011;67394;52.522;13.622;2023-04-24T00:59:31;8.20;;;6.10;;
78143;SDS011;67394;52.522;13.622;2023-04-24T01:01:58;9.40;;;6.22;;
78143;SDS011;67394;52.522;13.622;2023-04-24T01:04:25;8.00;;;5.57;;
78143;SDS011;67394;52.522;13.622;2023-04-24T01:06:51;8.73;;;5.90;;
78143;SDS011;67394;52.522;13.622;2023-04-24T01:09:18;8.50;;;5.65;;
78143;SDS011;67394;52.522;13.622;2023-04-24T01:11:47;9.73;;;6.75;;
78143;SDS011;67394;52.522;13.622;2023-04-24T01:14:13;9.07;;;6.00;;
78143;SDS011;67394;52.522;13.622;2023-04-24T01:16:40;10.13;;;6.55;;
78143;SDS011;67394;52.522;13.622;2023-04-24T01:19:07;10.27;;;5.97;;
78143;SDS011;67394;52.522;13.622;2023-04-24T01:21:34;8.05;;;5.85;;
78143;SDS011;67394;52.522;13.622;2023-04-24T01:24:03;8.27;;;5.82;;
78143;SDS011;67394;52.522;13.622;2023-04-24T01:26:31;8.48;;;6.28;;
78143;SDS011;67394;52.522;13.622;2023-04-24T01:28:57;9.80;;;5.70;;
78143;SDS011;67394;52.522;13.622;2023-04-24T01:31:24;8.85;;;6.65;;
78143;SDS011;67394;52.522;13.622;2023-04-24T01:33:50;10.00;;;5.95;;
78143;SDS011;67394;52.522;13.622;2023-04-24T01:36:17;7.97;;;5.75;;
78143;SDS011;67394;52.522;13.622;2023-04-24T01:41:11;8.10;;;5.50;;
78143;SDS011;67394;52.522;13.622;2023-04-24T01:43:37;9.10;;;5.40;;
78143;SDS011;67394;52.522;13.622;2023-04-24T01:46:04;7.97;;;5.97;;
78143;SDS011;67394;52.522;13.622;2023-04-24T01:48:31;7.53;;;5.50;;
78143;SDS011;67394;52.522;13.622;2023-04-24T01:50:57;8.05;;;5.50;;
78143;SDS011;67394;52.522;13.622;2023-04-24T01:53:24;7.70;;;4.95;;
78143;SDS011;67394;52.522;13.622;2023-04-24T01:55:51;9.07;;;5.43;;
78143;SDS011;67394;52.522;13.622;2023-04-24T01:58:17;7.07;;;5.55;;
78143;SDS011;67394;52.522;13.622;2023-04-24T02:00:43;8.32;;;5.43;;
78143;SDS011;67394;52.522;13.622;2023-04-24T02:03:10;9.88;;;5.43;;
78143;SDS011;67394;52.522;13.622;2023-04-24T02:05:36;8.48;;;5.78;;
78143;SDS011;67394;52.522;13.622;2023-04-24T02:08:03;8.55;;;5.50;;
78143;SDS011;67394;52.522;13.622;2023-04-24T02:10:29;8.43;;;5.53;;
78143;SDS011;67394;52.522;13.622;2023-04-24T02:12:55;7.60;;;5.43;;
78143;SDS011;67394;52.522;13.622;2023-04-24T02:15:22;7.38;;;5.53;;
78143;SDS011;67394;52.522;13.622;2023-04-24T02:17:48;7.88;;;5.90;;
78143;SDS011;67394;52.522;13.622;2023-04-24T02:20:14;8.07;;;5.72;;
78143;SDS011;67394;52.522;13.622;2023-04-24T02:22:41;8.27;;;5.55;;
78143;SDS011;67394;52.522;13.622;2023-04-24T02:25:07;6.97;;;5.18;;
78143;SDS011;67394;52.522;13.622;2023-04-24T02:27:34;6.68;;;5.75;;
78143;SDS011;67394;52.522;13.622;2023-04-24T02:30:00;8.20;;;5.75;;
78143;SDS011;67394;52.522;13.622;2023-04-24T02:32:27;7.47;;;5.40;;
78143;SDS011;67394;52.522;13.622;2023-04-24T02:34:53;10.70;;;5.85;;
78143;SDS011;67394;52.522;13.622;2023-04-24T02:37:19;6.53;;;4.97;;
78143;SDS011;67394;52.522;13.622;2023-04-24T02:39:45;7.35;;;6.00;;
78143;SDS011;67394;52.522;13.622;2023-04-24T02:42:12;9.25;;;5.68;;
78143;SDS011;67394;52.522;13.622;2023-04-24T02:44:38;7.57;;;5.15;;
78143;SDS011;67394;52.522;13.622;2023-04-24T02:47:04;9.90;;;6.65;;
78143;SDS011;67394;52.522;13.622;2023-04-24T02:49:31;7.95;;;6.20;;
78143;SDS011;67394;52.522;13.622;2023-04-24T02:51:57;8.50;;;6.00;;
78143;SDS011;67394;52.522;13.622;2023-04-24T02:54:23;9.10;;;6.18;;
78143;SDS011;67394;52.522;13.622;2023-04-24T02:56:50;7.95;;;6.32;;
78143;SDS011;67394;52.522;13.622;2023-04-24T02:59:16;7.53;;;6.00;;
78143;SDS011;67394;52.522;13.622;2023-04-24T03:01:43;7.78;;;5.55;;
78143;SDS011;67394;52.522;13.622;2023-04-24T03:04:09;8.40;;;6.20;;
78143;SDS011;67394;52.522;13.622;2023-04-24T03:06:36;7.32;;;5.65;;
78143;SDS011;67394;52.522;13.622;2023-04-24T03:09:02;8.60;;;6.13;;
78143;SDS011;67394;52.522;13.622;2023-04-24T03:11:28;7.22;;;5.90;;
78143;SDS011;67394;52.522;13.622;2023-04-24T03:13:55;7.63;;;5.57;;
78143;SDS011;67394;52.522;13.622;2023-04-24T03:16:21;7.38;;;5.32;;
78143;SDS011;67394;52.522;13.622;2023-04-24T03:18:47;7.93;;;5.38;;
78143;SDS011;67394;52.522;13.622;2023-04-24T03:21:14;7.38;;;5.60;;
78143;SDS011;67394;52.522;13.622;2023-04-24T03:23:40;8.82;;;6.82;;
78143;SDS011;67394;52.522;13.622;2023-04-24T03:26:06;7.47;;;6.00;;
78143;SDS011;67394;52.522;13.622;2023-04-24T03:28:33;9.63;;;6.20;;
78143;SDS011;67394;52.522;13.622;2023-04-24T03:30:59;8.93;;;6.20;;
78143;SDS011;67394;52.522;13.622;2023-04-24T03:33:25;8.20;;;6.00;;
78143;SDS011;67394;52.522;13.622;2023-04-24T03:35:52;7.70;;;5.65;;
78143;SDS011;67394;52.522;13.622;2023-04-24T03:38:18;8.77;;;6.20;;
78143;SDS011;67394;52.522;13.622;2023-04-24T03:40:44;8.85;;;6.38;;
78143;SDS011;67394;52.522;13.622;2023-04-24T03:43:11;8.32;;;5.90;;
78143;SDS011;67394;52.522;13.622;2023-04-24T03:45:37;8.32;;;6.15;;
78143;SDS011;67394;52.522;13.622;2023-04-24T03:48:03;10.95;;;6.85;;
78143;SDS011;67394;52.522;13.622;2023-04-24T03:50:30;10.95;;;6.85;;
78143;SDS011;67394;52.522;13.622;2023-04-24T03:52:56;7.95;;;6.00;;
78143;SDS011;67394;52.522;13.622;2023-04-24T03:55:22;8.80;;;6.30;;
78143;SDS011;67394;52.522;13.622;2023-04-24T03:57:49;8.30;;;6.38;;
78143;SDS011;67394;52.522;13.622;2023-04-24T04:00:15;8.25;;;5.95;;
78143;SDS011;67394;52.522;13.622;2023-04-24T04:02:41;9.13;;;6.30;;
78143;SDS011;67394;52.522;13.622;2023-04-24T04:05:08;8.00;;;6.25;;
78143;SDS011;67394;52.522;13.622;2023-04-24T04:07:34;9.95;;;6.60;;
78143;SDS011;67394;52.522;13.622;2023-04-24T04:10:01;8.85;;;6.47;;
78143;SDS011;67394;52.522;13.622;2023-04-24T04:12:27;7.90;;;6.03;;
78143;SDS011;67394;52.522;13.622;2023-04-24T04:14:53;9.63;;;5.95;;
78143;SDS011;67394;52.522;13.622;2023-04-24T04:17:20;8.05;;;6.13;;
78143;SDS011;67394;52.522;13.622;2023-04-24T04:19:46;8.55;;;6.00;;
78143;SDS011;67394;52.522;13.622;2023-04-24T04:22:12;8.27;;;6.35;;
78143;SDS011;67394;52.522;13.622;2023-04-24T04:24:39;9.63;;;7.20;;
78143;SDS011;67394;52.522;13.622;2023-04-24T04:27:05;20.48;;;13.95;;
78143;SDS011;67394;52.522;13.622;2023-04-24T04:29:32;13.05;;;8.48;;
78143;SDS011;67394;52.522;13.622;2023-04-24T04:31:58;9.93;;;6.47;;
78143;SDS011;67394;52.522;13.622;2023-04-24T04:34:25;10.10;;;7.20;;
78143;SDS011;67394;52.522;13.622;2023-04-24T04:36:51;8.50;;;6.00;;
78143;SDS011;67394;52.522;13.622;2023-04-24T04:39:17;9.93;;;7.35;;
78143;SDS011;67394;52.522;13.622;2023-04-24T04:41:44;8.75;;;6.78;;
78143;SDS011;67394;52.522;13.622;2023-04-24T04:44:10;9.70;;;6.82;;
78143;SDS011;67394;52.522;13.622;2023-04-24T04:46:36;7.90;;;5.90;;
78143;SDS011;67394;52.522;13.622;2023-04-24T04:49:03;7.88;;;6.20;;
78143;SDS011;67394;52.522;13.622;2023-04-24T04:51:30;9.40;;;6.40;;
78143;SDS011;67394;52.522;13.622;2023-04-24T04:53:56;7.88;;;5.88;;
78143;SDS011;67394;52.522;13.622;2023-04-24T04:56:22;8.32;;;6.35;;
78143;SDS011;67394;52.522;13.622;2023-04-24T04:58:49;6.70;;;5.65;;
78143;SDS011;67394;52.522;13.622;2023-04-24T05:01:15;7.72;;;5.57;;
78143;SDS011;67394;52.522;13.622;2023-04-24T05:03:41;7.90;;;6.25;;
78143;SDS011;67394;52.522;13.622;2023-04-24T05:06:08;7.75;;;5.75;;
78143;SDS011;67394;52.522;13.622;2023-04-24T05:08:34;10.13;;;6.47;;
78143;SDS011;67394;52.522;13.622;2023-04-24T05:11:01;8.15;;;5.90;;
78143;SDS011;67394;52.522;13.622;2023-04-24T05:13:27;8.90;;;4.88;;
78143;SDS011;67394;52.522;13.622;2023-04-24T05:16:06;7.88;;;5.53;;
78143;SDS011;67394;52.522;13.622;2023-04-24T05:18:33;7.93;;;5.60;;
78143;SDS011;67394;52.522;13.622;2023-04-24T05:20:59;7.63;;;5.22;;
78143;SDS011;67394;52.522;13.622;2023-04-24T05:23:25;9.77;;;6.75;;
78143;SDS011;67394;52.522;13.622;2023-04-24T05:25:52;7.55;;;5.50;;
78143;SDS011;67394;52.522;13.622;2023-04-24T05:28:18;7.25;;;5.50;;
78143;SDS011;67394;52.522;13.622;2023-04-24T05:30:44;7.63;;;5.32;;
78143;SDS011;67394;52.522;13.622;2023-04-24T05:33:11;7.93;;;5.80;;
78143;SDS011;67394;52.522;13.622;2023-04-24T05:35:37;8.20;;;5.95;;
78143;SDS011;67394;52.522;13.622;2023-04-24T05:38:03;6.88;;;5.05;;
78143;SDS011;67394;52.522;13.622;2023-04-24T05:40:30;8.02;;;4.68;;
78143;SDS011;67394;52.522;13.622;2023-04-24T05:42:56;6.22;;;4.75;;
78143;SDS011;67394;52.522;13.622;2023-04-24T05:45:22;8.82;;;4.68;;
78143;SDS011;67394;52.522;13.622;2023-04-24T05:47:49;6.57;;;4.45;;
78143;SDS011;67394;52.522;13.622;2023-04-24T05:50:15;4.93;;;4.07;;
78143;SDS011;67394;52.522;13.622;2023-04-24T05:52:41;5.10;;;3.67;;
78143;SDS011;67394;52.522;13.622;2023-04-24T05:55:08;5.75;;;3.65;;
78143;SDS011;67394;52.522;13.622;2023-04-24T05:57:34;4.75;;;3.60;;
78143;SDS011;67394;52.522;13.622;2023-04-24T06:00:00;5.57;;;3.60;;
78143;SDS011;67394;52.522;13.622;2023-04-24T06:02:27;5.15;;;3.50;;
78143;SDS011;67394;52.522;13.622;2023-04-24T06:04:54;5.43;;;3.72;;
78143;SDS011;67394;52.522;13.622;2023-04-24T06:07:34;4.72;;;3.35;;
78143;SDS011;67394;52.522;13.622;2023-04-24T06:10:01;3.80;;;2.97;;
78143;SDS011;67394;52.522;13.622;2023-04-24T06:12:27;5.38;;;3.60;;
78143;SDS011;67394;52.522;13.622;2023-04-24T06:14:53;4.32;;;3.08;;
78143;SDS011;67394;52.522;13.622;2023-04-24T06:17:19;4.45;;;3.20;;
78143;SDS011;67394;52.522;13.622;2023-04-24T06:19:46;3.67;;;2.70;;
78143;SDS011;67394;52.522;13.622;2023-04-24T06:22:12;3.92;;;2.80;;
78143;SDS011;67394;52.522;13.622;2023-04-24T06:24:39;4.82;;;3.20;;
78143;SDS011;67394;52.522;13.622;2023-04-24T06:27:06;5.07;;;3.08;;
78143;SDS011;67394;52.522;13.622;2023-04-24T06:29:32;3.75;;;2.90;;
78143;SDS011;67394;52.522;13.622;2023-04-24T06:32:00;4.57;;;2.80;;
78143;SDS011;67394;52.522;13.622;2023-04-24T06:34:26;3.80;;;2.28;;
78143;SDS011;67394;52.522;13.622;2023-04-24T06:36:52;3.90;;;2.85;;
78143;SDS011;67394;52.522;13.622;2023-04-24T06:39:31;4.07;;;3.13;;
78143;SDS011;67394;52.522;13.622;2023-04-24T06:41:58;6.25;;;2.80;;
78143;SDS011;67394;52.522;13.622;2023-04-24T06:44:24;5.88;;;2.38;;
78143;SDS011;67394;52.522;13.622;2023-04-24T06:46:50;4.03;;;2.30;;
78143;SDS011;67394;52.522;13.622;2023-04-24T06:49:16;4.03;;;2.15;;
78143;SDS011;67394;52.522;13.622;2023-04-24T06:51:43;4.93;;;2.78;;
78143;SDS011;67394;52.522;13.622;2023-04-24T06:54:09;3.83;;;2.72;;
78143;SDS011;67394;52.522;13.622;2023-04-24T06:56:36;4.68;;;2.40;;
78143;SDS011;67394;52.522;13.622;2023-04-24T06:59:03;4.45;;;2.17;;
78143;SDS011;67394;52.522;13.622;2023-04-24T07:01:29;3.15;;;2.10;;
78143;SDS011;67394;52.522;13.622;2023-04-24T07:06:26;2.67;;;1.83;;
78143;SDS011;67394;52.522;13.622;2023-04-24T07:08:52;2.58;;;2.00;;
78143;SDS011;67394;52.522;13.622;2023-04-24T07:13:46;3.03;;;1.75;;
78143;SDS011;67394;52.522;13.622;2023-04-24T07:16:12;2.50;;;1.73;;
78143;SDS011;67394;52.522;13.622;2023-04-24T07:18:39;2.63;;;1.75;;
78143;SDS011;67394;52.522;13.622;2023-04-24T07:21:05;2.83;;;1.50;;
78143;SDS011;67394;52.522;13.622;2023-04-24T07:23:31;2.30;;;1.40;;
78143;SDS011;67394;52.522;13.622;2023-04-24T07:25:57;2.17;;;1.40;;
78143;SDS011;67394;52.522;13.622;2023-04-24T07:28:24;3.67;;;1.83;;
78143;SDS011;67394;52.522;13.622;2023-04-24T07:31:01;2.70;;;1.60;;
78143;SDS011;67394;52.522;13.622;2023-04-24T07:33:28;2.78;;;1.58;;
78143;SDS011;67394;52.522;13.622;2023-04-24T07:35:54;4.05;;;1.42;;
78143;SDS011;67394;52.522;13.622;2023-04-24T07:38:19;4.10;;;1.75;;
78143;SDS011;67394;52.522;13.622;2023-04-24T07:40:46;2.55;;;1.65;;
78143;SDS011;67394;52.522;13.622;2023-04-24T07:43:15;2.92;;;1.42;;
78143;SDS011;67394;52.522;13.622;2023-04-24T07:45:41;1.90;;;1.40;;
78143;SDS011;67394;52.522;13.622;2023-04-24T07:48:07;3.58;;;1.80;;
78143;SDS011;67394;52.522;13.622;2023-04-24T07:50:34;3.83;;;1.48;;
78143;SDS011;67394;52.522;13.622;2023-04-24T07:53:01;2.40;;;1.23;;
78143;SDS011;67394;52.522;13.622;2023-04-24T07:55:27;2.20;;;1.40;;
78143;SDS011;67394;52.522;13.622;2023-04-24T07:57:54;1.83;;;1.30;;
78143;SDS011;67394;52.522;13.622;2023-04-24T08:00:33;1.88;;;1.20;;
78143;SDS011;67394;52.522;13.622;2023-04-24T08:02:59;1.95;;;1.23;;
78143;SDS011;67394;52.522;13.622;2023-04-24T08:07:53;1.90;;;1.30;;
78143;SDS011;67394;52.522;13.622;2023-04-24T08:10:20;2.88;;;1.30;;
78143;SDS011;67394;52.522;13.622;2023-04-24T08:12:47;2.35;;;1.30;;
78143;SDS011;67394;52.522;13.622;2023-04-24T08:15:13;2.47;;;1.40;;
78143;SDS011;67394;52.522;13.622;2023-04-24T08:17:40;2.97;;;1.17;;
78143;SDS011;67394;52.522;13.622;2023-04-24T08:20:07;1.92;;;1.10;;
78143;SDS011;67394;52.522;13.622;2023-04-24T08:22:35;1.85;;;1.30;;
78143;SDS011;67394;52.522;13.622;2023-04-24T08:25:01;3.00;;;1.58;;
78143;SDS011;67394;52.522;13.622;2023-04-24T08:27:28;2.65;;;1.30;;
78143;SDS011;67394;52.522;13.622;2023-04-24T08:29:54;2.42;;;1.65;;
78143;SDS011;67394;52.522;13.622;2023-04-24T08:32:21;1.65;;;1.13;;
78143;SDS011;67394;52.522;13.622;2023-04-24T08:34:47;2.17;;;1.30;;
78143;SDS011;67394;52.522;13.622;2023-04-24T08:37:15;2.10;;;1.20;;
78143;SDS011;67394;52.522;13.622;2023-04-24T08:39:41;2.97;;;1.30;;
78143;SDS011;67394;52.522;13.622;2023-04-24T08:42:07;1.95;;;1.52;;
78143;SDS011;67394;52.522;13.622;2023-04-24T08:44:35;2.08;;;1.30;;
78143;SDS011;67394;52.522;13.622;2023-04-24T08:47:02;2.78;;;1.55;;
78143;SDS011;67394;52.522;13.622;2023-04-24T08:54:20;1.90;;;1.38;;
78143;SDS011;67394;52.522;13.622;2023-04-24T08:56:47;1.75;;;1.30;;
78143;SDS011;67394;52.522;13.622;2023-04-24T08:59:15;2.88;;;1.60;;
78143;SDS011;67394;52.522;13.622;2023-04-24T09:04:09;1.80;;;1.20;;
78143;SDS011;67394;52.522;13.622;2023-04-24T09:06:36;2.25;;;1.23;;
78143;SDS011;67394;52.522;13.622;2023-04-24T09:09:02;1.80;;;1.20;;
78143;SDS011;67394;52.522;13.622;2023-04-24T09:11:30;1.85;;;1.25;;
78143;SDS011;67394;52.522;13.622;2023-04-24T09:14:00;2.10;;;1.20;;
78143;SDS011;67394;52.522;13.622;2023-04-24T09:16:27;2.70;;;1.27;;
78143;SDS011;67394;52.522;13.622;2023-04-24T09:18:55;3.00;;;1.30;;
78143;SDS011;67394;52.522;13.622;2023-04-24T09:21:23;2.10;;;1.20;;
78143;SDS011;67394;52.522;13.622;2023-04-24T09:26:23;1.52;;;0.90;;
78143;SDS011;67394;52.522;13.622;2023-04-24T09:28:49;3.88;;;1.00;;
78143;SDS011;67394;52.522;13.622;2023-04-24T09:31:18;1.27;;;0.90;;
78143;SDS011;67394;52.522;13.622;2023-04-24T09:36:22;2.17;;;0.90;;
78143;SDS011;67394;52.522;13.622;2023-04-24T09:38:53;2.55;;;1.48;;
78143;SDS011;67394;52.522;13.622;2023-04-24T09:41:24;1.65;;;1.10;;
78143;SDS011;67394;52.522;13.622;2023-04-24T09:43:50;2.28;;;1.40;;
78143;SDS011;67394;52.522;13.622;2023-04-24T09:46:19;1.65;;;1.00;;
78143;SDS011;67394;52.522;13.622;2023-04-24T09:48:45;1.77;;;1.20;;
78143;SDS011;67394;52.522;13.622;2023-04-24T09:51:11;1.92;;;1.00;;
78143;SDS011;67394;52.522;13.622;2023-04-24T09:53:38;1.92;;;1.00;;
78143;SDS011;67394;52.522;13.622;2023-04-24T09:56:08;5.07;;;1.30;;
78143;SDS011;67394;52.522;13.622;2023-04-24T09:58:36;1.48;;;1.10;;
78143;SDS011;67394;52.522;13.622;2023-04-24T10:03:32;3.90;;;1.30;;
78143;SDS011;67394;52.522;13.622;2023-04-24T10:06:00;3.58;;;1.23;;
78143;SDS011;67394;52.522;13.622;2023-04-24T10:08:32;1.85;;;1.20;;
78143;SDS011;67394;52.522;13.622;2023-04-24T10:10:59;2.03;;;1.48;;
78143;SDS011;67394;52.522;13.622;2023-04-24T10:13:26;4.80;;;1.70;;
78143;SDS011;67394;52.522;13.622;2023-04-24T10:15:54;4.82;;;2.28;;
78143;SDS011;67394;52.522;13.622;2023-04-24T10:18:22;3.28;;;1.45;;
78143;SDS011;67394;52.522;13.622;2023-04-24T10:20:50;2.78;;;1.52;;
78143;SDS011;67394;52.522;13.622;2023-04-24T10:23:16;3.00;;;1.48;;
78143;SDS011;67394;52.522;13.622;2023-04-24T10:25:44;1.92;;;1.35;;
78143;SDS011;67394;52.522;13.622;2023-04-24T10:28:11;3.05;;;1.58;;
78143;SDS011;67394;52.522;13.622;2023-04-24T10:30:38;2.75;;;1.20;;
78143;SDS011;67394;52.522;13.622;2023-04-24T10:33:08;1.52;;;1.30;;
78143;SDS011;67394;52.522;13.622;2023-04-24T10:35:36;2.13;;;1.20;;
78143;SDS011;67394;52.522;13.622;2023-04-24T10:38:06;2.58;;;1.25;;
78143;SDS011;67394;52.522;13.622;2023-04-24T10:40:37;3.10;;;1.25;;
78143;SDS011;67394;52.522;13.622;2023-04-24T10:43:04;4.28;;;1.20;;
78143;SDS011;67394;52.522;13.622;2023-04-24T10:45:31;1.33;;;1.02;;
78143;SDS011;67394;52.522;13.622;2023-04-24T10:47:58;2.70;;;1.65;;
78143;SDS011;67394;52.522;13.622;2023-04-24T10:50:41;1.50;;;1.20;;
78143;SDS011;67394;52.522;13.622;2023-04-24T10:53:11;2.53;;;1.15;;
78143;SDS011;67394;52.522;13.622;2023-04-24T10:55:46;1.48;;;1.20;;
78143;SDS011;67394;52.522;13.622;2023-04-24T10:58:15;2.67;;;1.27;;
78143;SDS011;67394;52.522;13.622;2023-04-24T11:00:43;1.83;;;1.33;;
78143;SDS011;67394;52.522;13.622;2023-04-24T11:06:17;2.10;;;1.60;;
78143;SDS011;67394;52.522;13.622;2023-04-24T11:09:09;2.47;;;1.35;;
78143;SDS011;67394;52.522;13.622;2023-04-24T11:11:44;3.25;;;1.50;;
78143;SDS011;67394;52.522;13.622;2023-04-24T11:14:13;2.00;;;1.33;;
78143;SDS011;67394;52.522;13.622;2023-04-24T11:16:44;3.00;;;1.65;;
78143;SDS011;67394;52.522;13.622;2023-04-24T11:19:18;2.38;;;1.35;;
78143;SDS011;67394;52.522;13.622;2023-04-24T11:21:58;3.45;;;1.38;;
78143;SDS011;67394;52.522;13.622;2023-04-24T11:27:06;2.35;;;1.40;;
78143;SDS011;67394;52.522;13.622;2023-04-24T11:34:53;1.75;;;1.23;;
78143;SDS011;67394;52.522;13.622;2023-04-24T11:37:27;1.73;;;1.25;;
78143;SDS011;67394;52.522;13.622;2023-04-24T11:39:56;2.22;;;1.27;;
78143;SDS011;67394;52.522;13.622;2023-04-24T11:42:24;1.33;;;1.23;;
78143;SDS011;67394;52.522;13.622;2023-04-24T11:44:54;2.47;;;1.50;;
78143;SDS011;67394;52.522;13.622;2023-04-24T11:47:28;2.78;;;1.50;;
78143;SDS011;67394;52.522;13.622;2023-04-24T11:49:57;1.65;;;1.50;;
78143;SDS011;67394;52.522;13.622;2023-04-24T11:52:25;1.90;;;1.58;;
78143;SDS011;67394;52.522;13.622;2023-04-24T11:54:52;3.20;;;1.83;;
78143;SDS011;67394;52.522;13.622;2023-04-24T11:57:19;4.75;;;2.25;;
78143;SDS011;67394;52.522;13.622;2023-04-24T11:59:48;3.20;;;2.33;;
78143;SDS011;67394;52.522;13.622;2023-04-24T12:02:21;4.65;;;2.08;;
78143;SDS011;67394;52.522;13.622;2023-04-24T12:04:48;2.55;;;2.00;;
78143;SDS011;67394;52.522;13.622;2023-04-24T12:07:15;3.03;;;2.30;;
78143;SDS011;67394;52.522;13.622;2023-04-24T12:09:46;2.05;;;1.85;;
78143;SDS011;67394;52.522;13.622;2023-04-24T12:12:23;3.25;;;1.98;;
78143;SDS011;67394;52.522;13.622;2023-04-24T12:14:55;2.92;;;1.90;;
78143;SDS011;67394;52.522;13.622;2023-04-24T12:17:29;2.10;;;1.80;;
78143;SDS011;67394;52.522;13.622;2023-04-24T12:20:05;3.35;;;2.60;;
78143;SDS011;67394;52.522;13.622;2023-04-24T12:25:20;2.80;;;2.00;;
78143;SDS011;67394;52.522;13.622;2023-04-24T12:27:54;2.60;;;2.20;;
78143;SDS011;67394;52.522;13.622;2023-04-24T12:30:31;3.75;;;2.10;;
78143;SDS011;67394;52.522;13.622;2023-04-24T12:32:59;3.72;;;1.85;;
78143;SDS011;67394;52.522;13.622;2023-04-24T12:35:27;2.22;;;1.98;;
78143;SDS011;67394;52.522;13.622;2023-04-24T12:37:55;3.90;;;1.90;;
78143;SDS011;67394;52.522;13.622;2023-04-24T12:40:21;2.50;;;2.00;;
78143;SDS011;67394;52.522;13.622;2023-04-24T12:42:51;2.42;;;1.70;;
78143;SDS011;67394;52.522;13.622;2023-04-24T12:45:18;2.20;;;1.52;;
78143;SDS011;67394;52.522;13.622;2023-04-24T12:47:45;2.20;;;1.45;;
78143;SDS011;67394;52.522;13.622;2023-04-24T12:50:13;1.77;;;1.50;;
78143;SDS011;67394;52.522;13.622;2023-04-24T12:52:42;2.30;;;1.40;;
78143;SDS011;67394;52.522;13.622;2023-04-24T12:55:09;3.45;;;1.45;;
78143;SDS011;67394;52.522;13.622;2023-04-24T12:57:37;1.83;;;1.40;;
78143;SDS011;67394;52.522;13.622;2023-04-24T13:00:06;3.05;;;1.30;;
78143;SDS011;67394;52.522;13.622;2023-04-24T13:02:33;3.20;;;1.55;;
78143;SDS011;67394;52.522;13.622;2023-04-24T13:05:00;1.40;;;1.10;;
78143;SDS011;67394;52.522;13.622;2023-04-24T13:07:27;2.28;;;1.45;;
78143;SDS011;67394;52.522;13.622;2023-04-24T13:09:54;3.00;;;1.10;;
78143;SDS011;67394;52.522;13.622;2023-04-24T13:12:21;2.90;;;1.42;;
78143;SDS011;67394;52.522;13.622;2023-04-24T13:14:48;4.40;;;1.50;;
78143;SDS011;67394;52.522;13.622;2023-04-24T13:17:15;2.90;;;1.25;;
78143;SDS011;67394;52.522;13.622;2023-04-24T13:19:42;1.60;;;1.10;;
78143;SDS011;67394;52.522;13.622;2023-04-24T13:22:10;2.35;;;1.20;;
78143;SDS011;67394;52.522;13.622;2023-04-24T13:24:37;2.60;;;1.25;;
78143;SDS011;67394;52.522;13.622;2023-04-24T13:27:05;2.35;;;1.30;;
78143;SDS011;67394;52.522;13.622;2023-04-24T13:29:31;2.97;;;1.17;;
78143;SDS011;67394;52.522;13.622;2023-04-24T13:31:58;1.88;;;1.13;;
78143;SDS011;67394;52.522;13.622;2023-04-24T13:34:25;2.00;;;0.93;;
78143;SDS011;67394;52.522;13.622;2023-04-24T13:39:20;3.00;;;1.08;;
78143;SDS011;67394;52.522;13.622;2023-04-24T13:41:47;1.70;;;1.30;;
78143;SDS011;67394;52.522;13.622;2023-04-24T13:44:14;1.52;;;1.08;;
78143;SDS011;67394;52.522;13.622;2023-04-24T13:46:42;1.60;;;1.13;;
78143;SDS011;67394;52.522;13.622;2023-04-24T13:49:09;1.55;;;1.00;;
78143;SDS011;67394;52.522;13.622;2023-04-24T13:51:35;1.80;;;1.05;;
78143;SDS011;67394;52.522;13.622;2023-04-24T13:54:02;1.65;;;1.15;;
78143;SDS011;67394;52.522;13.622;2023-04-24T13:56:28;2.30;;;1.10;;
78143;SDS011;67394;52.522;13.622;2023-04-24T13:58:55;2.60;;;0.90;;
78143;SDS011;67394;52.522;13.622;2023-04-24T14:03:48;1.80;;;1.48;;
78143;SDS011;67394;52.522;13.622;2023-04-24T14:06:15;1.50;;;1.00;;
78143;SDS011;67394;52.522;13.622;2023-04-24T14:08:42;1.80;;;1.25;;
78143;SDS011;67394;52.522;13.622;2023-04-24T14:11:08;1.83;;;1.20;;
78143;SDS011;67394;52.522;13.622;2023-04-24T14:13:35;1.67;;;1.15;;
78143;SDS011;67394;52.522;13.622;2023-04-24T14:16:03;2.05;;;1.00;;
78143;SDS011;67394;52.522;13.622;2023-04-24T14:18:30;1.50;;;1.02;;
78143;SDS011;67394;52.522;13.622;2023-04-24T14:20:56;1.48;;;1.00;;
78143;SDS011;67394;52.522;13.622;2023-04-24T14:23:22;1.17;;;1.00;;
78143;SDS011;67394;52.522;13.622;2023-04-24T14:25:49;2.67;;;1.20;;
78143;SDS011;67394;52.522;13.622;2023-04-24T14:28:15;2.38;;;1.23;;
78143;SDS011;67394;52.522;13.622;2023-04-24T14:30:42;2.88;;;1.15;;
78143;SDS011;67394;52.522;13.622;2023-04-24T14:33:08;3.45;;;1.30;;
78143;SDS011;67394;52.522;13.622;2023-04-24T14:35:35;1.60;;;1.10;;
78143;SDS011;67394;52.522;13.622;2023-04-24T14:38:02;1.58;;;1.20;;
78143;SDS011;67394;52.522;13.622;2023-04-24T14:40:28;3.42;;;1.48;;
78143;SDS011;67394;52.522;13.622;2023-04-24T14:43:15;3.95;;;1.27;;
78143;SDS011;67394;52.522;13.622;2023-04-24T14:45:41;2.63;;;1.38;;
78143;SDS011;67394;52.522;13.622;2023-04-24T14:48:07;3.03;;;1.20;;
78143;SDS011;67394;52.522;13.622;2023-04-24T14:50:34;1.40;;;1.05;;
78143;SDS011;67394;52.522;13.622;2023-04-24T14:53:00;1.38;;;1.05;;
78143;SDS011;67394;52.522;13.622;2023-04-24T14:55:27;3.38;;;1.35;;
78143;SDS011;67394;52.522;13.622;2023-04-24T14:57:53;2.95;;;1.35;;
78143;SDS011;67394;52.522;13.622;2023-04-24T15:00:20;1.60;;;1.20;;
78143;SDS011;67394;52.522;13.622;2023-04-24T15:02:47;1.98;;;1.40;;
78143;SDS011;67394;52.522;13.622;2023-04-24T15:05:14;1.88;;;1.40;;
78143;SDS011;67394;52.522;13.622;2023-04-24T15:10:07;2.45;;;1.60;;
78143;SDS011;67394;52.522;13.622;2023-04-24T15:12:34;1.98;;;1.27;;
78143;SDS011;67394;52.522;13.622;2023-04-24T15:15:01;3.00;;;1.50;;
78143;SDS011;67394;52.522;13.622;2023-04-24T15:17:27;1.85;;;1.30;;
78143;SDS011;67394;52.522;13.622;2023-04-24T15:19:53;2.47;;;1.20;;